sensor_id;sensor_type;location;lat;lon;timestamp;temperature;humidity
2407;DHT22;37709;53.480;9.688;2022-12-07T00:01:35;2.90;99.90
2407;DHT22;37709;53.480;9.688;2022-12-07T00:04:04;3.00;99.90
2407;DHT22;37709;53.480;9.688;2022-12-07T00:06:34;3.00;99.90
2407;DHT22;37709;53.480;9.688;2022-12-07T00:09:02;3.00;99.90
2407;DHT22;37709;53.480;9.688;2022-12-07T00:11:29;3.00;99.90
2407;DHT22;37709;53.480;9.688;2022-12-07T00:13:59;2.80;99.90
2407;DHT22;37709;53.480;9.688;2022-12-07T00:16:29;2.70;99.90
2407;DHT22;37709;53.480;9.688;2022-12-07T00:18:57;2.50;99.90
2407;DHT22;37709;53.480;9.688;2022-12-07T00:21:26;2.40;99.90
2407;DHT22;37709;53.480;9.688;2022-12-07T00:23:55;2.30;99.90
2407;DHT22;37709;53.480;9.688;2022-12-07T00:26:27;2.30;99.90
2407;DHT22;37709;53.480;9.688;2022-12-07T00:29:05;2.30;99.90
2407;DHT22;37709;53.480;9.688;2022-12-07T00:31:35;2.10;99.90
2407;DHT22;37709;53.480;9.688;2022-12-07T00:34:06;2.00;99.90
2407;DHT22;37709;53.480;9.688;2022-12-07T00:36:34;2.10;99.90
2407;DHT22;37709;53.480;9.688;2022-12-07T00:39:01;2.20;99.90
2407;DHT22;37709;53.480;9.688;2022-12-07T00:41:29;2.20;99.90
2407;DHT22;37709;53.480;9.688;2022-12-07T00:43:57;2.30;99.90
2407;DHT22;37709;53.480;9.688;2022-12-07T00:46:24;2.30;99.90
2407;DHT22;37709;53.480;9.688;2022-12-07T00:48:56;2.30;99.90
2407;DHT22;37709;53.480;9.688;2022-12-07T00:51:24;2.40;99.90
2407;DHT22;37709;53.480;9.688;2022-12-07T00:53:52;2.50;99.90
2407;DHT22;37709;53.480;9.688;2022-12-07T00:56:23;2.60;99.90
2407;DHT22;37709;53.480;9.688;2022-12-07T01:01:24;2.60;99.90
2407;DHT22;37709;53.480;9.688;2022-12-07T01:03:52;2.60;99.90
2407;DHT22;37709;53.480;9.688;2022-12-07T01:06:20;2.60;99.90
2407;DHT22;37709;53.480;9.688;2022-12-07T01:08:47;2.70;99.90
2407;DHT22;37709;53.480;9.688;2022-12-07T01:11:18;2.80;99.90
2407;DHT22;37709;53.480;9.688;2022-12-07T01:13:45;2.80;99.90
2407;DHT22;37709;53.480;9.688;2022-12-07T01:16:15;2.90;99.90
2407;DHT22;37709;53.480;9.688;2022-12-07T01:18:46;3.00;99.90
2407;DHT22;37709;53.480;9.688;2022-12-07T01:21:16;3.10;99.90
2407;DHT22;37709;53.480;9.688;2022-12-07T01:23:46;3.10;99.90
2407;DHT22;37709;53.480;9.688;2022-12-07T01:26:16;3.00;99.90
2407;DHT22;37709;53.480;9.688;2022-12-07T01:28:44;2.90;99.90
2407;DHT22;37709;53.480;9.688;2022-12-07T01:31:17;2.80;99.90
2407;DHT22;37709;53.480;9.688;2022-12-07T01:33:47;2.60;99.90
2407;DHT22;37709;53.480;9.688;2022-12-07T01:36:21;2.50;99.90
2407;DHT22;37709;53.480;9.688;2022-12-07T01:38:50;2.40;99.90
2407;DHT22;37709;53.480;9.688;2022-12-07T01:41:21;2.40;99.90
2407;DHT22;37709;53.480;9.688;2022-12-07T01:44:17;2.30;99.90
2407;DHT22;37709;53.480;9.688;2022-12-07T01:47:00;2.20;99.90
2407;DHT22;37709;53.480;9.688;2022-12-07T01:49:35;2.10;99.90
2407;DHT22;37709;53.480;9.688;2022-12-07T01:52:16;2.00;99.90
2407;DHT22;37709;53.480;9.688;2022-12-07T01:54:46;2.00;99.90
2407;DHT22;37709;53.480;9.688;2022-12-07T01:57:16;1.90;99.90
2407;DHT22;37709;53.480;9.688;2022-12-07T01:59:45;1.90;99.90
2407;DHT22;37709;53.480;9.688;2022-12-07T02:02:23;1.90;99.90
2407;DHT22;37709;53.480;9.688;2022-12-07T02:04:54;1.80;99.90
2407;DHT22;37709;53.480;9.688;2022-12-07T02:07:23;1.80;99.90
2407;DHT22;37709;53.480;9.688;2022-12-07T02:09:51;1.80;99.90
2407;DHT22;37709;53.480;9.688;2022-12-07T02:12:18;1.60;99.90
2407;DHT22;37709;53.480;9.688;2022-12-07T02:14:46;1.50;99.90
2407;DHT22;37709;53.480;9.688;2022-12-07T02:17:24;1.50;99.90
2407;DHT22;37709;53.480;9.688;2022-12-07T02:20:08;1.50;99.90
2407;DHT22;37709;53.480;9.688;2022-12-07T02:23:04;1.50;99.90
2407;DHT22;37709;53.480;9.688;2022-12-07T02:25:59;1.50;99.90
2407;DHT22;37709;53.480;9.688;2022-12-07T02:28:37;1.60;99.90
2407;DHT22;37709;53.480;9.688;2022-12-07T02:31:11;1.50;99.90
2407;DHT22;37709;53.480;9.688;2022-12-07T02:33:46;1.50;99.90
2407;DHT22;37709;53.480;9.688;2022-12-07T02:36:28;1.50;99.90
2407;DHT22;37709;53.480;9.688;2022-12-07T02:39:18;1.50;99.90
2407;DHT22;37709;53.480;9.688;2022-12-07T02:41:55;1.50;99.90
2407;DHT22;37709;53.480;9.688;2022-12-07T02:44:26;1.50;99.90
2407;DHT22;37709;53.480;9.688;2022-12-07T02:46:58;1.40;99.90
2407;DHT22;37709;53.480;9.688;2022-12-07T02:49:27;1.40;99.90
2407;DHT22;37709;53.480;9.688;2022-12-07T02:51:56;1.40;99.90
2407;DHT22;37709;53.480;9.688;2022-12-07T02:54:23;1.30;99.90
2407;DHT22;37709;53.480;9.688;2022-12-07T02:57:00;1.30;99.90
2407;DHT22;37709;53.480;9.688;2022-12-07T02:59:59;1.20;99.90
2407;DHT22;37709;53.480;9.688;2022-12-07T03:02:40;1.20;99.90
2407;DHT22;37709;53.480;9.688;2022-12-07T03:10:59;1.00;99.90
2407;DHT22;37709;53.480;9.688;2022-12-07T03:13:38;1.10;99.90
2407;DHT22;37709;53.480;9.688;2022-12-07T03:16:18;1.10;99.90
2407;DHT22;37709;53.480;9.688;2022-12-07T03:18:51;1.10;99.90
2407;DHT22;37709;53.480;9.688;2022-12-07T03:21:26;1.10;99.90
2407;DHT22;37709;53.480;9.688;2022-12-07T03:23:57;1.10;99.90
2407;DHT22;37709;53.480;9.688;2022-12-07T03:26:31;1.00;99.90
2407;DHT22;37709;53.480;9.688;2022-12-07T03:29:05;1.00;99.90
2407;DHT22;37709;53.480;9.688;2022-12-07T03:31:43;0.90;99.90
2407;DHT22;37709;53.480;9.688;2022-12-07T03:37:04;0.90;99.90
2407;DHT22;37709;53.480;9.688;2022-12-07T03:39:41;0.90;99.90
2407;DHT22;37709;53.480;9.688;2022-12-07T03:42:12;0.80;99.90
2407;DHT22;37709;53.480;9.688;2022-12-07T03:44:41;0.80;99.90
2407;DHT22;37709;53.480;9.688;2022-12-07T03:50:12;0.60;99.90
2407;DHT22;37709;53.480;9.688;2022-12-07T03:52:42;0.60;99.90
2407;DHT22;37709;53.480;9.688;2022-12-07T03:55:19;0.60;99.90
2407;DHT22;37709;53.480;9.688;2022-12-07T03:57:50;0.60;99.90
2407;DHT22;37709;53.480;9.688;2022-12-07T04:00:19;0.60;99.90
2407;DHT22;37709;53.480;9.688;2022-12-07T04:02:46;0.50;99.90
2407;DHT22;37709;53.480;9.688;2022-12-07T04:05:14;0.50;99.90
2407;DHT22;37709;53.480;9.688;2022-12-07T04:07:45;0.50;99.90
2407;DHT22;37709;53.480;9.688;2022-12-07T04:10:14;0.50;99.90
2407;DHT22;37709;53.480;9.688;2022-12-07T04:12:41;0.50;99.90
2407;DHT22;37709;53.480;9.688;2022-12-07T04:15:09;0.60;99.90
2407;DHT22;37709;53.480;9.688;2022-12-07T04:18:02;0.60;99.90
2407;DHT22;37709;53.480;9.688;2022-12-07T04:20:29;0.60;99.90
2407;DHT22;37709;53.480;9.688;2022-12-07T04:22:57;0.70;99.90
2407;DHT22;37709;53.480;9.688;2022-12-07T04:25:25;0.80;99.90
2407;DHT22;37709;53.480;9.688;2022-12-07T04:27:52;0.80;99.90
2407;DHT22;37709;53.480;9.688;2022-12-07T04:30:19;0.80;99.90
2407;DHT22;37709;53.480;9.688;2022-12-07T04:32:46;0.90;99.90
2407;DHT22;37709;53.480;9.688;2022-12-07T04:35:14;0.90;99.90
2407;DHT22;37709;53.480;9.688;2022-12-07T04:37:41;0.90;99.90
2407;DHT22;37709;53.480;9.688;2022-12-07T04:40:09;1.00;99.90
2407;DHT22;37709;53.480;9.688;2022-12-07T04:42:38;1.00;99.90
2407;DHT22;37709;53.480;9.688;2022-12-07T04:45:05;1.10;99.90
2407;DHT22;37709;53.480;9.688;2022-12-07T04:47:33;1.10;99.90
2407;DHT22;37709;53.480;9.688;2022-12-07T04:50:00;1.10;99.90
2407;DHT22;37709;53.480;9.688;2022-12-07T04:52:28;1.10;99.90
2407;DHT22;37709;53.480;9.688;2022-12-07T04:54:55;1.10;99.90
2407;DHT22;37709;53.480;9.688;2022-12-07T04:57:22;1.10;99.90
2407;DHT22;37709;53.480;9.688;2022-12-07T04:59:49;1.00;99.90
2407;DHT22;37709;53.480;9.688;2022-12-07T05:02:16;0.90;99.90
2407;DHT22;37709;53.480;9.688;2022-12-07T05:04:45;0.90;99.90
2407;DHT22;37709;53.480;9.688;2022-12-07T05:07:12;0.80;99.90
2407;DHT22;37709;53.480;9.688;2022-12-07T05:09:39;0.80;99.90
2407;DHT22;37709;53.480;9.688;2022-12-07T05:12:06;0.70;99.90
2407;DHT22;37709;53.480;9.688;2022-12-07T05:14:33;0.60;99.90
2407;DHT22;37709;53.480;9.688;2022-12-07T05:17:01;0.50;99.90
2407;DHT22;37709;53.480;9.688;2022-12-07T05:19:28;0.40;99.90
2407;DHT22;37709;53.480;9.688;2022-12-07T05:21:56;0.30;99.90
2407;DHT22;37709;53.480;9.688;2022-12-07T05:24:24;0.30;99.90
2407;DHT22;37709;53.480;9.688;2022-12-07T05:26:51;0.40;99.90
2407;DHT22;37709;53.480;9.688;2022-12-07T05:29:19;0.50;99.90
2407;DHT22;37709;53.480;9.688;2022-12-07T05:31:46;0.50;99.90
2407;DHT22;37709;53.480;9.688;2022-12-07T05:34:14;0.40;99.90
2407;DHT22;37709;53.480;9.688;2022-12-07T05:36:41;0.50;99.90
2407;DHT22;37709;53.480;9.688;2022-12-07T05:39:08;0.60;99.90
2407;DHT22;37709;53.480;9.688;2022-12-07T05:41:37;0.60;99.90
2407;DHT22;37709;53.480;9.688;2022-12-07T05:44:22;0.60;99.90
2407;DHT22;37709;53.480;9.688;2022-12-07T05:46:50;0.60;99.90
2407;DHT22;37709;53.480;9.688;2022-12-07T05:49:17;0.60;99.90
2407;DHT22;37709;53.480;9.688;2022-12-07T05:51:44;0.50;99.90
2407;DHT22;37709;53.480;9.688;2022-12-07T05:54:11;0.70;99.90
2407;DHT22;37709;53.480;9.688;2022-12-07T05:56:39;0.70;99.90
2407;DHT22;37709;53.480;9.688;2022-12-07T05:59:07;0.70;99.90
2407;DHT22;37709;53.480;9.688;2022-12-07T06:01:55;0.70;99.90
2407;DHT22;37709;53.480;9.688;2022-12-07T06:04:25;0.70;99.90
2407;DHT22;37709;53.480;9.688;2022-12-07T06:06:53;0.70;99.90
2407;DHT22;37709;53.480;9.688;2022-12-07T06:09:21;0.70;99.90
2407;DHT22;37709;53.480;9.688;2022-12-07T06:11:49;0.70;99.90
2407;DHT22;37709;53.480;9.688;2022-12-07T06:14:35;0.80;99.90
2407;DHT22;37709;53.480;9.688;2022-12-07T06:17:03;0.80;99.90
2407;DHT22;37709;53.480;9.688;2022-12-07T06:19:30;0.80;99.90
2407;DHT22;37709;53.480;9.688;2022-12-07T06:21:58;0.70;99.90
2407;DHT22;37709;53.480;9.688;2022-12-07T06:24:25;0.50;99.90
2407;DHT22;37709;53.480;9.688;2022-12-07T06:26:54;0.50;99.90
2407;DHT22;37709;53.480;9.688;2022-12-07T06:29:21;0.50;99.90
2407;DHT22;37709;53.480;9.688;2022-12-07T06:31:49;0.40;99.90
2407;DHT22;37709;53.480;9.688;2022-12-07T06:34:21;0.50;99.90
2407;DHT22;37709;53.480;9.688;2022-12-07T06:36:53;0.60;99.90
2407;DHT22;37709;53.480;9.688;2022-12-07T06:39:24;0.70;99.90
2407;DHT22;37709;53.480;9.688;2022-12-07T06:41:52;0.70;99.90
2407;DHT22;37709;53.480;9.688;2022-12-07T06:44:21;0.80;99.90
2407;DHT22;37709;53.480;9.688;2022-12-07T06:46:50;0.80;99.90
2407;DHT22;37709;53.480;9.688;2022-12-07T06:49:18;0.80;99.90
2407;DHT22;37709;53.480;9.688;2022-12-07T06:51:45;0.90;99.90
2407;DHT22;37709;53.480;9.688;2022-12-07T06:54:13;0.90;99.90
2407;DHT22;37709;53.480;9.688;2022-12-07T06:56:41;0.80;99.90
2407;DHT22;37709;53.480;9.688;2022-12-07T06:59:09;0.90;99.90
2407;DHT22;37709;53.480;9.688;2022-12-07T07:01:37;0.90;99.90
2407;DHT22;37709;53.480;9.688;2022-12-07T07:04:04;0.80;99.90
2407;DHT22;37709;53.480;9.688;2022-12-07T07:06:32;0.80;99.90
2407;DHT22;37709;53.480;9.688;2022-12-07T07:09:00;0.80;99.90
2407;DHT22;37709;53.480;9.688;2022-12-07T07:11:27;0.90;99.90
2407;DHT22;37709;53.480;9.688;2022-12-07T07:13:54;0.80;99.90
2407;DHT22;37709;53.480;9.688;2022-12-07T07:16:24;0.90;99.90
2407;DHT22;37709;53.480;9.688;2022-12-07T07:18:51;1.00;99.90
2407;DHT22;37709;53.480;9.688;2022-12-07T07:21:18;1.10;99.90
2407;DHT22;37709;53.480;9.688;2022-12-07T07:23:46;1.20;99.90
2407;DHT22;37709;53.480;9.688;2022-12-07T07:26:13;1.20;99.90
2407;DHT22;37709;53.480;9.688;2022-12-07T07:28:52;1.20;99.90
2407;DHT22;37709;53.480;9.688;2022-12-07T07:31:19;1.20;99.90
2407;DHT22;37709;53.480;9.688;2022-12-07T07:33:47;1.20;99.90
2407;DHT22;37709;53.480;9.688;2022-12-07T07:36:41;1.20;99.90
2407;DHT22;37709;53.480;9.688;2022-12-07T07:39:10;1.20;99.90
2407;DHT22;37709;53.480;9.688;2022-12-07T07:41:40;1.20;99.90
2407;DHT22;37709;53.480;9.688;2022-12-07T07:44:12;1.20;99.90
2407;DHT22;37709;53.480;9.688;2022-12-07T07:46:40;1.20;99.90
2407;DHT22;37709;53.480;9.688;2022-12-07T07:49:09;1.30;99.90
2407;DHT22;37709;53.480;9.688;2022-12-07T07:51:37;1.30;99.90
2407;DHT22;37709;53.480;9.688;2022-12-07T07:54:09;1.40;99.90
2407;DHT22;37709;53.480;9.688;2022-12-07T07:56:37;1.40;99.90
2407;DHT22;37709;53.480;9.688;2022-12-07T07:59:04;1.50;99.90
2407;DHT22;37709;53.480;9.688;2022-12-07T08:01:32;1.50;99.90
2407;DHT22;37709;53.480;9.688;2022-12-07T08:04:04;1.60;99.90
2407;DHT22;37709;53.480;9.688;2022-12-07T08:06:32;1.60;99.90
2407;DHT22;37709;53.480;9.688;2022-12-07T08:08:59;1.70;99.90
2407;DHT22;37709;53.480;9.688;2022-12-07T08:11:26;1.70;99.90
2407;DHT22;37709;53.480;9.688;2022-12-07T08:13:55;1.70;99.90
2407;DHT22;37709;53.480;9.688;2022-12-07T08:16:22;1.80;99.90
2407;DHT22;37709;53.480;9.688;2022-12-07T08:18:49;1.90;99.90
2407;DHT22;37709;53.480;9.688;2022-12-07T08:21:17;1.90;99.90
2407;DHT22;37709;53.480;9.688;2022-12-07T08:23:46;1.90;99.90
2407;DHT22;37709;53.480;9.688;2022-12-07T08:26:17;2.00;99.90
2407;DHT22;37709;53.480;9.688;2022-12-07T08:28:44;2.00;99.90
2407;DHT22;37709;53.480;9.688;2022-12-07T08:31:15;2.10;99.90
2407;DHT22;37709;53.480;9.688;2022-12-07T08:33:45;2.10;99.90
2407;DHT22;37709;53.480;9.688;2022-12-07T08:36:13;2.20;99.90
2407;DHT22;37709;53.480;9.688;2022-12-07T08:38:41;2.30;99.90
2407;DHT22;37709;53.480;9.688;2022-12-07T08:41:22;2.30;99.90
2407;DHT22;37709;53.480;9.688;2022-12-07T08:43:51;2.40;99.90
2407;DHT22;37709;53.480;9.688;2022-12-07T08:46:36;2.40;99.90
2407;DHT22;37709;53.480;9.688;2022-12-07T08:49:12;2.50;99.90
2407;DHT22;37709;53.480;9.688;2022-12-07T08:51:40;2.50;99.90
2407;DHT22;37709;53.480;9.688;2022-12-07T08:54:11;2.60;99.90
2407;DHT22;37709;53.480;9.688;2022-12-07T08:56:40;2.60;99.90
2407;DHT22;37709;53.480;9.688;2022-12-07T08:59:08;2.70;99.90
2407;DHT22;37709;53.480;9.688;2022-12-07T09:01:35;2.70;99.90
2407;DHT22;37709;53.480;9.688;2022-12-07T09:04:02;2.70;99.90
2407;DHT22;37709;53.480;9.688;2022-12-07T09:06:30;2.80;99.90
2407;DHT22;37709;53.480;9.688;2022-12-07T09:08:59;2.80;99.90
2407;DHT22;37709;53.480;9.688;2022-12-07T09:11:27;2.80;99.90
2407;DHT22;37709;53.480;9.688;2022-12-07T09:13:55;2.90;99.90
2407;DHT22;37709;53.480;9.688;2022-12-07T09:16:23;2.90;99.90
2407;DHT22;37709;53.480;9.688;2022-12-07T09:18:50;3.00;99.90
2407;DHT22;37709;53.480;9.688;2022-12-07T09:21:43;2.90;99.90
2407;DHT22;37709;53.480;9.688;2022-12-07T09:24:12;2.90;99.90
2407;DHT22;37709;53.480;9.688;2022-12-07T09:26:39;2.80;99.90
2407;DHT22;37709;53.480;9.688;2022-12-07T09:29:07;2.90;99.90
2407;DHT22;37709;53.480;9.688;2022-12-07T09:31:36;2.90;99.90
2407;DHT22;37709;53.480;9.688;2022-12-07T09:34:04;2.90;99.90
2407;DHT22;37709;53.480;9.688;2022-12-07T09:36:33;2.90;99.90
2407;DHT22;37709;53.480;9.688;2022-12-07T09:39:00;2.90;99.90
2407;DHT22;37709;53.480;9.688;2022-12-07T09:41:30;3.00;99.90
2407;DHT22;37709;53.480;9.688;2022-12-07T09:44:08;3.00;99.90
2407;DHT22;37709;53.480;9.688;2022-12-07T09:46:39;3.00;99.90
2407;DHT22;37709;53.480;9.688;2022-12-07T09:49:12;3.00;99.90
2407;DHT22;37709;53.480;9.688;2022-12-07T09:51:42;3.00;99.90
2407;DHT22;37709;53.480;9.688;2022-12-07T09:54:13;3.10;99.90
2407;DHT22;37709;53.480;9.688;2022-12-07T09:56:41;3.20;99.90
2407;DHT22;37709;53.480;9.688;2022-12-07T09:59:18;3.40;99.90
2407;DHT22;37709;53.480;9.688;2022-12-07T10:01:49;3.60;99.90
2407;DHT22;37709;53.480;9.688;2022-12-07T10:04:23;3.70;99.90
2407;DHT22;37709;53.480;9.688;2022-12-07T10:06:51;3.80;99.90
2407;DHT22;37709;53.480;9.688;2022-12-07T10:09:20;3.90;99.90
2407;DHT22;37709;53.480;9.688;2022-12-07T10:12:17;3.90;99.90
2407;DHT22;37709;53.480;9.688;2022-12-07T10:14:59;3.80;99.90
2407;DHT22;37709;53.480;9.688;2022-12-07T10:17:40;3.80;99.90
2407;DHT22;37709;53.480;9.688;2022-12-07T10:23:08;3.60;99.90
2407;DHT22;37709;53.480;9.688;2022-12-07T10:25:44;3.50;99.90
2407;DHT22;37709;53.480;9.688;2022-12-07T10:28:15;3.40;99.90
2407;DHT22;37709;53.480;9.688;2022-12-07T10:30:48;3.40;99.90
2407;DHT22;37709;53.480;9.688;2022-12-07T10:35:57;3.40;99.90
2407;DHT22;37709;53.480;9.688;2022-12-07T10:38:27;3.40;99.90
2407;DHT22;37709;53.480;9.688;2022-12-07T10:41:05;3.40;99.90
2407;DHT22;37709;53.480;9.688;2022-12-07T10:43:36;3.40;99.90
2407;DHT22;37709;53.480;9.688;2022-12-07T10:46:38;3.50;99.90
2407;DHT22;37709;53.480;9.688;2022-12-07T10:55:16;3.90;99.90
2407;DHT22;37709;53.480;9.688;2022-12-07T10:58:05;4.00;99.90
2407;DHT22;37709;53.480;9.688;2022-12-07T11:00:51;4.10;99.90
2407;DHT22;37709;53.480;9.688;2022-12-07T11:06:40;4.40;99.90
2407;DHT22;37709;53.480;9.688;2022-12-07T11:09:29;4.50;99.90
2407;DHT22;37709;53.480;9.688;2022-12-07T11:15:51;4.60;99.90
2407;DHT22;37709;53.480;9.688;2022-12-07T11:21:32;4.60;99.90
2407;DHT22;37709;53.480;9.688;2022-12-07T11:24:15;4.70;99.90
2407;DHT22;37709;53.480;9.688;2022-12-07T11:27:06;5.20;99.90
2407;DHT22;37709;53.480;9.688;2022-12-07T11:29:55;6.00;99.90
2407;DHT22;37709;53.480;9.688;2022-12-07T11:32:51;5.90;99.90
2407;DHT22;37709;53.480;9.688;2022-12-07T11:38:17;7.00;99.90
2407;DHT22;37709;53.480;9.688;2022-12-07T11:40:54;6.80;99.90
2407;DHT22;37709;53.480;9.688;2022-12-07T11:43:28;6.10;99.90
2407;DHT22;37709;53.480;9.688;2022-12-07T11:46:05;5.80;99.90
2407;DHT22;37709;53.480;9.688;2022-12-07T11:48:40;5.70;99.90
2407;DHT22;37709;53.480;9.688;2022-12-07T11:51:11;5.60;99.90
2407;DHT22;37709;53.480;9.688;2022-12-07T11:53:51;5.50;99.90
2407;DHT22;37709;53.480;9.688;2022-12-07T11:56:21;5.30;99.90
2407;DHT22;37709;53.480;9.688;2022-12-07T11:59:11;5.20;99.90
2407;DHT22;37709;53.480;9.688;2022-12-07T12:01:53;5.10;99.90
2407;DHT22;37709;53.480;9.688;2022-12-07T12:07:02;4.90;99.90
2407;DHT22;37709;53.480;9.688;2022-12-07T12:10:02;5.00;99.90
2407;DHT22;37709;53.480;9.688;2022-12-07T12:15:58;5.20;99.90
2407;DHT22;37709;53.480;9.688;2022-12-07T12:18:51;5.00;99.90
2407;DHT22;37709;53.480;9.688;2022-12-07T12:21:26;4.70;99.90
2407;DHT22;37709;53.480;9.688;2022-12-07T12:24:03;4.70;99.90
2407;DHT22;37709;53.480;9.688;2022-12-07T12:26:33;4.90;99.90
2407;DHT22;37709;53.480;9.688;2022-12-07T12:29:21;5.00;99.90
2407;DHT22;37709;53.480;9.688;2022-12-07T12:32:12;5.20;99.90
2407;DHT22;37709;53.480;9.688;2022-12-07T12:37:40;5.30;99.90
2407;DHT22;37709;53.480;9.688;2022-12-07T12:42:58;5.20;99.90
2407;DHT22;37709;53.480;9.688;2022-12-07T12:48:29;5.20;99.90
2407;DHT22;37709;53.480;9.688;2022-12-07T12:54:12;6.30;99.90
2407;DHT22;37709;53.480;9.688;2022-12-07T12:56:47;7.40;99.90
2407;DHT22;37709;53.480;9.688;2022-12-07T12:59:26;8.00;99.90
2407;DHT22;37709;53.480;9.688;2022-12-07T13:02:21;8.40;99.90
2407;DHT22;37709;53.480;9.688;2022-12-07T13:18:35;9.10;99.90
2407;DHT22;37709;53.480;9.688;2022-12-07T13:23:59;7.90;99.90
2407;DHT22;37709;53.480;9.688;2022-12-07T13:29:15;6.50;99.90
2407;DHT22;37709;53.480;9.688;2022-12-07T13:31:57;6.20;99.90
2407;DHT22;37709;53.480;9.688;2022-12-07T13:34:34;5.90;99.90
2407;DHT22;37709;53.480;9.688;2022-12-07T13:37:14;5.60;99.90
2407;DHT22;37709;53.480;9.688;2022-12-07T13:39:49;5.40;99.90
2407;DHT22;37709;53.480;9.688;2022-12-07T13:42:27;5.20;99.90
2407;DHT22;37709;53.480;9.688;2022-12-07T13:44:57;5.00;99.90
2407;DHT22;37709;53.480;9.688;2022-12-07T13:47:52;4.80;99.90
2407;DHT22;37709;53.480;9.688;2022-12-07T13:50:25;4.60;99.90
2407;DHT22;37709;53.480;9.688;2022-12-07T13:52:58;4.50;99.90
2407;DHT22;37709;53.480;9.688;2022-12-07T13:55:27;4.40;99.90
2407;DHT22;37709;53.480;9.688;2022-12-07T13:57:55;4.40;99.90
2407;DHT22;37709;53.480;9.688;2022-12-07T14:00:26;4.40;99.90
2407;DHT22;37709;53.480;9.688;2022-12-07T14:03:19;4.50;99.90
2407;DHT22;37709;53.480;9.688;2022-12-07T14:06:24;4.40;99.90
2407;DHT22;37709;53.480;9.688;2022-12-07T14:11:48;4.40;99.90
2407;DHT22;37709;53.480;9.688;2022-12-07T14:14:28;4.30;99.90
2407;DHT22;37709;53.480;9.688;2022-12-07T14:17:15;4.20;99.90
2407;DHT22;37709;53.480;9.688;2022-12-07T14:19:49;4.10;99.90
2407;DHT22;37709;53.480;9.688;2022-12-07T14:22:29;4.10;99.90
2407;DHT22;37709;53.480;9.688;2022-12-07T14:25:00;3.90;99.90
2407;DHT22;37709;53.480;9.688;2022-12-07T14:27:58;3.80;99.90
2407;DHT22;37709;53.480;9.688;2022-12-07T14:30:28;3.70;99.90
2407;DHT22;37709;53.480;9.688;2022-12-07T14:33:02;3.70;99.90
2407;DHT22;37709;53.480;9.688;2022-12-07T14:35:30;3.70;99.90
2407;DHT22;37709;53.480;9.688;2022-12-07T14:37:58;3.60;99.90
2407;DHT22;37709;53.480;9.688;2022-12-07T14:40:28;3.50;99.90
2407;DHT22;37709;53.480;9.688;2022-12-07T14:43:04;3.30;99.90
2407;DHT22;37709;53.480;9.688;2022-12-07T14:45:31;3.20;99.90
2407;DHT22;37709;53.480;9.688;2022-12-07T14:47:59;3.10;99.90
2407;DHT22;37709;53.480;9.688;2022-12-07T14:50:51;2.90;99.90
2407;DHT22;37709;53.480;9.688;2022-12-07T14:53:47;2.70;99.90
2407;DHT22;37709;53.480;9.688;2022-12-07T14:56:24;2.60;99.90
2407;DHT22;37709;53.480;9.688;2022-12-07T14:58:52;2.40;99.90
2407;DHT22;37709;53.480;9.688;2022-12-07T15:01:19;2.20;99.90
2407;DHT22;37709;53.480;9.688;2022-12-07T15:03:46;2.10;99.90
2407;DHT22;37709;53.480;9.688;2022-12-07T15:06:16;2.10;99.90
2407;DHT22;37709;53.480;9.688;2022-12-07T15:08:44;2.10;99.90
2407;DHT22;37709;53.480;9.688;2022-12-07T15:11:13;2.10;99.90
2407;DHT22;37709;53.480;9.688;2022-12-07T15:14:06;2.00;99.90
2407;DHT22;37709;53.480;9.688;2022-12-07T15:16:40;2.00;99.90
2407;DHT22;37709;53.480;9.688;2022-12-07T15:19:28;2.00;99.90
2407;DHT22;37709;53.480;9.688;2022-12-07T15:21:56;1.90;99.90
2407;DHT22;37709;53.480;9.688;2022-12-07T15:24:53;1.90;99.90
2407;DHT22;37709;53.480;9.688;2022-12-07T15:27:20;1.90;99.90
2407;DHT22;37709;53.480;9.688;2022-12-07T15:29:51;2.00;99.90
2407;DHT22;37709;53.480;9.688;2022-12-07T15:32:21;1.90;99.90
2407;DHT22;37709;53.480;9.688;2022-12-07T15:34:50;1.90;99.90
2407;DHT22;37709;53.480;9.688;2022-12-07T15:37:17;1.90;99.90
2407;DHT22;37709;53.480;9.688;2022-12-07T15:39:44;1.90;99.90
2407;DHT22;37709;53.480;9.688;2022-12-07T15:42:11;1.90;99.90
2407;DHT22;37709;53.480;9.688;2022-12-07T15:44:38;1.90;99.90
2407;DHT22;37709;53.480;9.688;2022-12-07T15:47:25;1.70;99.90
2407;DHT22;37709;53.480;9.688;2022-12-07T15:49:54;1.60;99.90
2407;DHT22;37709;53.480;9.688;2022-12-07T15:52:23;1.60;99.90
2407;DHT22;37709;53.480;9.688;2022-12-07T15:54:50;1.70;99.90
2407;DHT22;37709;53.480;9.688;2022-12-07T15:57:17;1.60;99.90
2407;DHT22;37709;53.480;9.688;2022-12-07T15:59:51;1.60;99.90
2407;DHT22;37709;53.480;9.688;2022-12-07T16:02:19;1.60;99.90
2407;DHT22;37709;53.480;9.688;2022-12-07T16:04:46;1.50;99.90
2407;DHT22;37709;53.480;9.688;2022-12-07T16:07:13;1.40;99.90
2407;DHT22;37709;53.480;9.688;2022-12-07T16:09:43;1.30;99.90
2407;DHT22;37709;53.480;9.688;2022-12-07T16:12:11;1.30;99.90
2407;DHT22;37709;53.480;9.688;2022-12-07T16:14:39;1.30;99.90
2407;DHT22;37709;53.480;9.688;2022-12-07T16:17:07;1.20;99.90
2407;DHT22;37709;53.480;9.688;2022-12-07T16:19:36;1.20;99.90
2407;DHT22;37709;53.480;9.688;2022-12-07T16:22:04;1.10;99.90
2407;DHT22;37709;53.480;9.688;2022-12-07T16:24:32;1.10;99.90
2407;DHT22;37709;53.480;9.688;2022-12-07T16:26:59;1.00;99.90
2407;DHT22;37709;53.480;9.688;2022-12-07T16:29:26;0.90;99.90
2407;DHT22;37709;53.480;9.688;2022-12-07T16:31:54;0.90;99.90
2407;DHT22;37709;53.480;9.688;2022-12-07T16:34:21;0.80;99.90
2407;DHT22;37709;53.480;9.688;2022-12-07T16:36:48;0.80;99.90
2407;DHT22;37709;53.480;9.688;2022-12-07T16:39:33;0.70;99.90
2407;DHT22;37709;53.480;9.688;2022-12-07T16:42:01;0.70;99.90
2407;DHT22;37709;53.480;9.688;2022-12-07T16:44:28;0.70;99.90
2407;DHT22;37709;53.480;9.688;2022-12-07T16:46:55;0.70;99.90
2407;DHT22;37709;53.480;9.688;2022-12-07T16:49:23;0.70;99.90
2407;DHT22;37709;53.480;9.688;2022-12-07T16:51:51;0.70;99.90
2407;DHT22;37709;53.480;9.688;2022-12-07T16:54:39;0.70;99.90
2407;DHT22;37709;53.480;9.688;2022-12-07T16:57:06;0.80;99.90
2407;DHT22;37709;53.480;9.688;2022-12-07T16:59:33;0.70;99.90
2407;DHT22;37709;53.480;9.688;2022-12-07T17:02:00;0.70;99.90
2407;DHT22;37709;53.480;9.688;2022-12-07T17:04:28;0.60;99.90
2407;DHT22;37709;53.480;9.688;2022-12-07T17:06:55;0.60;99.90
2407;DHT22;37709;53.480;9.688;2022-12-07T17:09:22;0.50;99.90
2407;DHT22;37709;53.480;9.688;2022-12-07T17:11:49;0.50;99.90
2407;DHT22;37709;53.480;9.688;2022-12-07T17:14:16;0.50;99.90
2407;DHT22;37709;53.480;9.688;2022-12-07T17:17:16;0.50;99.90
2407;DHT22;37709;53.480;9.688;2022-12-07T17:19:43;0.40;99.90
2407;DHT22;37709;53.480;9.688;2022-12-07T17:22:11;0.40;99.90
2407;DHT22;37709;53.480;9.688;2022-12-07T17:24:39;0.50;99.90
2407;DHT22;37709;53.480;9.688;2022-12-07T17:27:06;0.50;99.90
2407;DHT22;37709;53.480;9.688;2022-12-07T17:29:44;0.40;99.90
2407;DHT22;37709;53.480;9.688;2022-12-07T17:32:12;0.30;99.90
2407;DHT22;37709;53.480;9.688;2022-12-07T17:34:39;0.20;99.90
2407;DHT22;37709;53.480;9.688;2022-12-07T17:37:07;0.10;99.90
2407;DHT22;37709;53.480;9.688;2022-12-07T17:39:34;0.10;99.90
2407;DHT22;37709;53.480;9.688;2022-12-07T17:42:01;0.10;99.90
2407;DHT22;37709;53.480;9.688;2022-12-07T17:44:47;0.00;99.90
2407;DHT22;37709;53.480;9.688;2022-12-07T17:47:14;-0.10;99.90
2407;DHT22;37709;53.480;9.688;2022-12-07T17:49:43;-0.10;99.90
2407;DHT22;37709;53.480;9.688;2022-12-07T17:52:13;-0.10;99.90
2407;DHT22;37709;53.480;9.688;2022-12-07T17:54:59;-0.20;99.90